sensor_id;sensor_type;location;lat;lon;timestamp;pressure;altitude;pressure_sealevel;temperature;humidity
10688;BME280;5392;42.688;23.298;2022-08-04T00:00:10;57279.84;;;-144.48;100.00
10688;BME280;5392;42.688;23.298;2022-08-04T00:05:29;57279.84;;;-144.48;100.00
10688;BME280;5392;42.688;23.298;2022-08-04T00:10:49;57265.22;;;-144.48;100.00
10688;BME280;5392;42.688;23.298;2022-08-04T00:13:24;57290.28;;;-144.48;100.00
10688;BME280;5392;42.688;23.298;2022-08-04T00:15:52;57250.63;;;-144.48;100.00
10688;BME280;5392;42.688;23.298;2022-08-04T00:18:26;57296.53;;;-144.48;100.00
10688;BME280;5392;42.688;23.298;2022-08-04T00:20:59;57290.28;;;-144.48;100.00
10688;BME280;5392;42.688;23.298;2022-08-04T00:23:33;57263.16;;;-144.48;100.00
10688;BME280;5392;42.688;23.298;2022-08-04T00:26:20;57267.31;;;-144.48;100.00
10688;BME280;5392;42.688;23.298;2022-08-04T00:28:47;57261.06;;;-144.48;100.00
10688;BME280;5392;42.688;23.298;2022-08-04T00:31:15;57256.88;;;-144.48;100.00
10688;BME280;5392;42.688;23.298;2022-08-04T00:33:45;57267.31;;;-144.48;100.00
10688;BME280;5392;42.688;23.298;2022-08-04T00:36:12;57254.78;;;-144.48;100.00
10688;BME280;5392;42.688;23.298;2022-08-04T00:38:40;57263.16;;;-144.48;100.00
10688;BME280;5392;42.688;23.298;2022-08-04T00:41:18;57292.38;;;-144.48;100.00
10688;BME280;5392;42.688;23.298;2022-08-04T01:00:15;57286.09;;;-144.48;100.00
10688;BME280;5392;42.688;23.298;2022-08-04T01:16:52;57296.53;;;-144.48;100.00
10688;BME280;5392;42.688;23.298;2022-08-04T01:19:52;57261.06;;;-144.48;100.00
10688;BME280;5392;42.688;23.298;2022-08-04T01:30:24;57258.97;;;-144.48;100.00
10688;BME280;5392;42.688;23.298;2022-08-04T01:32:59;57323.66;;;-144.48;100.00
10688;BME280;5392;42.688;23.298;2022-08-04T01:35:35;57277.75;;;-144.48;100.00
10688;BME280;5392;42.688;23.298;2022-08-04T01:38:18;57294.44;;;-144.48;100.00
10688;BME280;5392;42.688;23.298;2022-08-04T01:40:51;57298.63;;;-144.48;100.00
10688;BME280;5392;42.688;23.298;2022-08-04T01:43:19;57311.16;;;-144.48;100.00
10688;BME280;5392;42.688;23.298;2022-08-04T01:45:56;57317.41;;;-144.48;100.00
10688;BME280;5392;42.688;23.298;2022-08-04T01:48:25;57273.56;;;-144.48;100.00
10688;BME280;5392;42.688;23.298;2022-08-04T01:50:53;57302.81;;;-144.48;100.00
10688;BME280;5392;42.688;23.298;2022-08-04T01:53:22;57296.53;;;-144.48;100.00
10688;BME280;5392;42.688;23.298;2022-08-04T01:55:55;57306.97;;;-144.48;100.00
10688;BME280;5392;42.688;23.298;2022-08-04T01:58:24;57321.59;;;-144.48;100.00
10688;BME280;5392;42.688;23.298;2022-08-04T02:01:05;57288.19;;;-144.48;100.00
10688;BME280;5392;42.688;23.298;2022-08-04T02:03:36;57332.03;;;-144.48;100.00
10688;BME280;5392;42.688;23.298;2022-08-04T02:10:21;57332.03;;;-144.48;100.00
10688;BME280;5392;42.688;23.298;2022-08-04T02:12:35;57261.06;;;-144.48;100.00
10688;BME280;5392;42.688;23.298;2022-08-04T02:20:43;57281.94;;;-144.48;100.00
10688;BME280;5392;42.688;23.298;2022-08-04T02:23:25;57298.63;;;-144.48;100.00
10688;BME280;5392;42.688;23.298;2022-08-04T02:26:00;57273.56;;;-144.48;100.00
10688;BME280;5392;42.688;23.298;2022-08-04T02:28:50;57296.53;;;-144.48;100.00
10688;BME280;5392;42.688;23.298;2022-08-04T02:34:08;57296.53;;;-144.48;100.00
10688;BME280;5392;42.688;23.298;2022-08-04T02:36:38;57313.22;;;-144.48;100.00
10688;BME280;5392;42.688;23.298;2022-08-04T02:39:07;57281.94;;;-144.48;100.00
10688;BME280;5392;42.688;23.298;2022-08-04T02:41:35;57281.94;;;-144.48;100.00
10688;BME280;5392;42.688;23.298;2022-08-04T02:44:07;57279.84;;;-144.48;100.00
10688;BME280;5392;42.688;23.298;2022-08-04T02:46:36;57288.19;;;-144.48;100.00
10688;BME280;5392;42.688;23.298;2022-08-04T02:49:05;57286.09;;;-144.48;100.00
10688;BME280;5392;42.688;23.298;2022-08-04T02:51:39;57319.50;;;-144.48;100.00
10688;BME280;5392;42.688;23.298;2022-08-04T02:54:07;57315.31;;;-144.48;100.00
10688;BME280;5392;42.688;23.298;2022-08-04T02:56:36;57302.81;;;-144.48;100.00
10688;BME280;5392;42.688;23.298;2022-08-04T02:59:09;57298.63;;;-144.48;100.00
10688;BME280;5392;42.688;23.298;2022-08-04T03:01:37;57325.75;;;-144.48;100.00
10688;BME280;5392;42.688;23.298;2022-08-04T03:35:15;57340.38;;;-144.48;100.00
10688;BME280;5392;42.688;23.298;2022-08-04T04:06:28;57309.06;;;-144.48;100.00
10688;BME280;5392;42.688;23.298;2022-08-04T04:12:07;57290.28;;;-144.48;93.26
10688;BME280;5392;42.688;23.298;2022-08-04T04:14:58;57279.84;;;-144.48;91.51
10688;BME280;5392;42.688;23.298;2022-08-04T04:21:03;57292.38;;;-144.48;93.20
10688;BME280;5392;42.688;23.298;2022-08-04T04:26:31;57263.16;;;-144.48;92.76
10688;BME280;5392;42.688;23.298;2022-08-04T04:29:04;57298.63;;;-144.48;92.85
10688;BME280;5392;42.688;23.298;2022-08-04T04:32:31;57288.19;;;-144.48;93.22
10688;BME280;5392;42.688;23.298;2022-08-04T04:49:25;57315.31;;;-144.48;90.79
10688;BME280;5392;42.688;23.298;2022-08-04T04:52:06;57296.53;;;-144.48;92.97
10688;BME280;5392;42.688;23.298;2022-08-04T04:54:44;57290.28;;;-144.48;89.74
10688;BME280;5392;42.688;23.298;2022-08-04T04:57:18;57225.56;;;-144.48;86.72
10688;BME280;5392;42.688;23.298;2022-08-04T05:00:08;57267.31;;;-144.48;86.57
10688;BME280;5392;42.688;23.298;2022-08-04T05:02:42;57273.56;;;-144.48;87.02
10688;BME280;5392;42.688;23.298;2022-08-04T05:05:26;57296.53;;;-144.48;87.80
10688;BME280;5392;42.688;23.298;2022-08-04T05:13:44;57275.66;;;-144.48;80.94
10688;BME280;5392;42.688;23.298;2022-08-04T05:16:40;57288.19;;;-144.48;78.36
10688;BME280;5392;42.688;23.298;2022-08-04T05:19:19;57256.88;;;-144.48;74.66
10688;BME280;5392;42.688;23.298;2022-08-04T05:24:42;57261.06;;;-144.48;55.65
10688;BME280;5392;42.688;23.298;2022-08-04T05:27:25;57221.41;;;-144.48;50.14
10688;BME280;5392;42.688;23.298;2022-08-04T05:29:58;57219.31;;;-144.48;46.36
10688;BME280;5392;42.688;23.298;2022-08-04T05:32:42;57202.63;;;-144.48;44.04
10688;BME280;5392;42.688;23.298;2022-08-04T05:35:15;57217.22;;;-144.48;44.81
10688;BME280;5392;42.688;23.298;2022-08-04T05:38:08;57196.34;;;-144.48;42.05
10688;BME280;5392;42.688;23.298;2022-08-04T05:40:37;57227.66;;;-144.48;41.21
10688;BME280;5392;42.688;23.298;2022-08-04T05:43:05;57229.75;;;-144.48;38.39
10688;BME280;5392;42.688;23.298;2022-08-04T05:45:35;57215.13;;;-144.48;36.36
10688;BME280;5392;42.688;23.298;2022-08-04T05:48:07;57206.78;;;-144.48;36.35
10688;BME280;5392;42.688;23.298;2022-08-04T05:50:34;57225.56;;;-144.48;36.43
10688;BME280;5392;42.688;23.298;2022-08-04T05:53:02;57198.44;;;-144.48;36.00
10688;BME280;5392;42.688;23.298;2022-08-04T05:55:30;57194.25;;;-144.48;35.63
10688;BME280;5392;42.688;23.298;2022-08-04T05:58:18;57227.66;;;-144.48;36.06
10688;BME280;5392;42.688;23.298;2022-08-04T06:00:46;57188.00;;;-144.48;35.47
10688;BME280;5392;42.688;23.298;2022-08-04T06:03:18;57215.13;;;-144.48;34.23
10688;BME280;5392;42.688;23.298;2022-08-04T06:05:47;57185.91;;;-144.48;33.88
10688;BME280;5392;42.688;23.298;2022-08-04T06:08:15;57213.06;;;-144.48;33.62
10688;BME280;5392;42.688;23.298;2022-08-04T06:10:43;57204.69;;;-144.48;33.07
10688;BME280;5392;42.688;23.298;2022-08-04T06:13:15;57210.97;;;-144.48;36.03
10688;BME280;5392;42.688;23.298;2022-08-04T06:16:04;57217.22;;;-144.48;37.13
10688;BME280;5392;42.688;23.298;2022-08-04T06:18:33;57233.91;;;-144.48;38.73
10688;BME280;5392;42.688;23.298;2022-08-04T06:21:23;57240.19;;;-144.48;40.44
10688;BME280;5392;42.688;23.298;2022-08-04T06:23:54;57258.97;;;-144.48;42.48
10688;BME280;5392;42.688;23.298;2022-08-04T06:26:32;57252.72;;;-144.48;42.08
10688;BME280;5392;42.688;23.298;2022-08-04T06:29:00;57248.53;;;-144.48;41.73
10688;BME280;5392;42.688;23.298;2022-08-04T06:31:28;57256.88;;;-144.48;44.94
10688;BME280;5392;42.688;23.298;2022-08-04T06:34:29;57298.63;;;-144.48;47.08
10688;BME280;5392;42.688;23.298;2022-08-04T06:36:57;57288.19;;;-144.48;48.20
10688;BME280;5392;42.688;23.298;2022-08-04T06:39:26;57273.56;;;-144.48;49.95
10688;BME280;5392;42.688;23.298;2022-08-04T06:41:55;57240.19;;;-144.48;50.70
10688;BME280;5392;42.688;23.298;2022-08-04T06:44:43;57294.44;;;-144.48;53.80
10688;BME280;5392;42.688;23.298;2022-08-04T06:47:11;57263.16;;;-144.48;53.10
10688;BME280;5392;42.688;23.298;2022-08-04T06:49:45;57275.66;;;-144.48;52.64
10688;BME280;5392;42.688;23.298;2022-08-04T06:52:32;57277.75;;;-144.48;54.13
10688;BME280;5392;42.688;23.298;2022-08-04T06:54:59;57279.84;;;-144.48;47.78
10688;BME280;5392;42.688;23.298;2022-08-04T06:57:28;57254.78;;;-144.48;42.68
10688;BME280;5392;42.688;23.298;2022-08-04T07:00:04;57250.63;;;-144.48;38.80
10688;BME280;5392;42.688;23.298;2022-08-04T07:02:36;57188.00;;;-144.48;34.82
10688;BME280;5392;42.688;23.298;2022-08-04T07:05:06;57210.97;;;-144.48;34.19
10688;BME280;5392;42.688;23.298;2022-08-04T07:07:33;57248.53;;;-144.48;34.15
10688;BME280;5392;42.688;23.298;2022-08-04T07:10:22;57233.91;;;-144.48;35.58
10688;BME280;5392;42.688;23.298;2022-08-04T07:12:50;57225.56;;;-144.48;34.24
10688;BME280;5392;42.688;23.298;2022-08-04T07:15:20;57236.00;;;-144.48;34.49
10688;BME280;5392;42.688;23.298;2022-08-04T07:17:48;57281.94;;;-144.48;37.01
10688;BME280;5392;42.688;23.298;2022-08-04T07:20:18;57271.50;;;-144.48;39.30
10688;BME280;5392;42.688;23.298;2022-08-04T07:23:04;57244.34;;;-144.48;37.43
10688;BME280;5392;42.688;23.298;2022-08-04T07:25:35;57236.00;;;-144.48;37.17
10688;BME280;5392;42.688;23.298;2022-08-04T07:28:26;57242.28;;;-144.48;37.25
10688;BME280;5392;42.688;23.298;2022-08-04T07:30:55;57229.75;;;-144.48;37.41
10688;BME280;5392;42.688;23.298;2022-08-04T07:33:23;57256.88;;;-144.48;37.19
10688;BME280;5392;42.688;23.298;2022-08-04T07:35:54;57238.09;;;-144.48;35.29
10688;BME280;5392;42.688;23.298;2022-08-04T07:38:41;57215.13;;;-144.48;33.46
10688;BME280;5392;42.688;23.298;2022-08-04T07:41:22;57208.88;;;-144.48;32.09
10688;BME280;5392;42.688;23.298;2022-08-04T07:44:07;57196.34;;;-144.48;30.95
10688;BME280;5392;42.688;23.298;2022-08-04T07:46:35;57206.78;;;-144.48;32.04
10688;BME280;5392;42.688;23.298;2022-08-04T07:49:03;57213.06;;;-144.48;33.45
10688;BME280;5392;42.688;23.298;2022-08-04T07:51:31;57227.66;;;-144.48;33.60
10688;BME280;5392;42.688;23.298;2022-08-04T07:53:58;57229.75;;;-144.48;33.14
10688;BME280;5392;42.688;23.298;2022-08-04T07:56:27;57261.06;;;-144.48;34.67
10688;BME280;5392;42.688;23.298;2022-08-04T07:58:55;57225.56;;;-144.48;35.00
10688;BME280;5392;42.688;23.298;2022-08-04T08:01:23;57269.41;;;-144.48;34.63
10688;BME280;5392;42.688;23.298;2022-08-04T08:03:54;57250.63;;;-144.48;34.83
10688;BME280;5392;42.688;23.298;2022-08-04T08:06:22;57246.44;;;-144.48;36.58
10688;BME280;5392;42.688;23.298;2022-08-04T08:09:00;57258.97;;;-144.48;37.02
10688;BME280;5392;42.688;23.298;2022-08-04T08:11:38;57204.69;;;-144.48;36.06
10688;BME280;5392;42.688;23.298;2022-08-04T08:14:26;57246.44;;;-144.48;35.85
10688;BME280;5392;42.688;23.298;2022-08-04T08:16:53;57252.72;;;-144.48;35.22
10688;BME280;5392;42.688;23.298;2022-08-04T08:19:20;57248.53;;;-144.48;34.12
10688;BME280;5392;42.688;23.298;2022-08-04T08:21:47;57217.22;;;-144.48;32.73
10688;BME280;5392;42.688;23.298;2022-08-04T08:24:29;57200.53;;;-144.48;31.29
10688;BME280;5392;42.688;23.298;2022-08-04T08:26:56;57190.09;;;-144.48;30.23
10688;BME280;5392;42.688;23.298;2022-08-04T08:29:25;57177.56;;;-144.48;29.56
10688;BME280;5392;42.688;23.298;2022-08-04T08:31:52;57190.09;;;-144.48;28.22
10688;BME280;5392;42.688;23.298;2022-08-04T08:34:26;57169.22;;;-144.48;27.88
10688;BME280;5392;42.688;23.298;2022-08-04T08:37:02;57167.13;;;-144.48;28.61
10688;BME280;5392;42.688;23.298;2022-08-04T08:39:37;57152.53;;;-144.48;28.35
10688;BME280;5392;42.688;23.298;2022-08-04T08:48:10;57206.78;;;-144.48;30.21
10688;BME280;5392;42.688;23.298;2022-08-04T08:56:32;57215.13;;;-144.48;30.71
10688;BME280;5392;42.688;23.298;2022-08-04T09:10:06;57185.91;;;-144.48;30.99
10688;BME280;5392;42.688;23.298;2022-08-04T09:15:29;57217.22;;;-144.48;30.26
10688;BME280;5392;42.688;23.298;2022-08-04T09:18:06;57221.41;;;-144.48;30.48
10688;BME280;5392;42.688;23.298;2022-08-04T09:21:05;57206.78;;;-144.48;30.29
10688;BME280;5392;42.688;23.298;2022-08-04T09:28:53;57210.97;;;-144.48;29.32
10688;BME280;5392;42.688;23.298;2022-08-04T09:31:29;57200.53;;;-144.48;29.64
10688;BME280;5392;42.688;23.298;2022-08-04T09:34:26;57192.19;;;-144.48;29.74
10688;BME280;5392;42.688;23.298;2022-08-04T09:37:21;57169.22;;;-144.48;29.41
10688;BME280;5392;42.688;23.298;2022-08-04T09:43:49;57202.63;;;-144.48;28.86
10688;BME280;5392;42.688;23.298;2022-08-04T09:49:34;57229.75;;;-144.48;29.66
10688;BME280;5392;42.688;23.298;2022-08-04T09:52:08;57213.06;;;-144.48;29.64
10688;BME280;5392;42.688;23.298;2022-08-04T09:54:50;57233.91;;;-144.48;30.93
10688;BME280;5392;42.688;23.298;2022-08-04T09:58:07;57190.09;;;-144.48;28.65
10688;BME280;5392;42.688;23.298;2022-08-04T10:00:45;57231.84;;;-144.48;29.03
10688;BME280;5392;42.688;23.298;2022-08-04T10:03:13;57213.06;;;-144.48;29.38
10688;BME280;5392;42.688;23.298;2022-08-04T10:08:59;57223.50;;;-144.48;29.00
10688;BME280;5392;42.688;23.298;2022-08-04T10:20:17;57240.19;;;-144.48;26.19
10688;BME280;5392;42.688;23.298;2022-08-04T10:28:43;57217.22;;;-144.48;25.65
10688;BME280;5392;42.688;23.298;2022-08-04T10:31:16;57225.56;;;-144.48;25.67
10688;BME280;5392;42.688;23.298;2022-08-04T10:34:00;57194.25;;;-144.48;26.31
10688;BME280;5392;42.688;23.298;2022-08-04T10:36:55;57202.63;;;-144.48;25.76
10688;BME280;5392;42.688;23.298;2022-08-04T10:39:31;57179.66;;;-144.48;25.25
10688;BME280;5392;42.688;23.298;2022-08-04T10:42:19;57177.56;;;-144.48;24.70
10688;BME280;5392;42.688;23.298;2022-08-04T10:45:13;57192.19;;;-144.48;25.15
10688;BME280;5392;42.688;23.298;2022-08-04T10:47:50;57196.34;;;-144.48;24.42
10688;BME280;5392;42.688;23.298;2022-08-04T10:50:22;57177.56;;;-144.48;24.40
10688;BME280;5392;42.688;23.298;2022-08-04T10:53:07;57142.09;;;-144.48;24.17
10688;BME280;5392;42.688;23.298;2022-08-04T10:55:41;57188.00;;;-144.48;23.72
10688;BME280;5392;42.688;23.298;2022-08-04T10:58:51;57215.13;;;-144.48;24.23
10688;BME280;5392;42.688;23.298;2022-08-04T11:01:34;57213.06;;;-144.48;24.08
10688;BME280;5392;42.688;23.298;2022-08-04T11:07:01;57183.84;;;-144.48;25.10
10688;BME280;5392;42.688;23.298;2022-08-04T11:09:29;57223.50;;;-144.48;25.40
10688;BME280;5392;42.688;23.298;2022-08-04T11:12:06;57198.44;;;-144.48;25.51
10688;BME280;5392;42.688;23.298;2022-08-04T11:15:12;57202.63;;;-144.48;25.32
10688;BME280;5392;42.688;23.298;2022-08-04T11:17:34;57183.84;;;-144.48;25.78
10688;BME280;5392;42.688;23.298;2022-08-04T11:20:21;57152.53;;;-144.48;24.98
10688;BME280;5392;42.688;23.298;2022-08-04T11:23:11;57202.63;;;-144.48;25.50
10688;BME280;5392;42.688;23.298;2022-08-04T11:25:59;57210.97;;;-144.48;25.42
10688;BME280;5392;42.688;23.298;2022-08-04T11:28:41;57179.66;;;-144.48;24.47
10688;BME280;5392;42.688;23.298;2022-08-04T11:31:30;57198.44;;;-144.48;24.50
10688;BME280;5392;42.688;23.298;2022-08-04T11:34:04;57156.69;;;-144.48;24.36
10688;BME280;5392;42.688;23.298;2022-08-04T11:36:58;57231.84;;;-144.48;24.51
10688;BME280;5392;42.688;23.298;2022-08-04T11:39:34;57208.88;;;-144.48;24.12
10688;BME280;5392;42.688;23.298;2022-08-04T11:44:40;57219.31;;;-144.48;24.25
10688;BME280;5392;42.688;23.298;2022-08-04T11:47:14;57210.97;;;-144.48;24.00
10688;BME280;5392;42.688;23.298;2022-08-04T11:49:51;57192.19;;;-144.48;24.08
10688;BME280;5392;42.688;23.298;2022-08-04T11:52:25;57238.09;;;-144.48;24.47
10688;BME280;5392;42.688;23.298;2022-08-04T11:54:53;57219.31;;;-144.48;25.06
10688;BME280;5392;42.688;23.298;2022-08-04T11:57:22;57242.28;;;-144.48;25.64
10688;BME280;5392;42.688;23.298;2022-08-04T12:00:04;57215.13;;;-144.48;26.09
10688;BME280;5392;42.688;23.298;2022-08-04T12:02:40;57236.00;;;-144.48;26.34
10688;BME280;5392;42.688;23.298;2022-08-04T12:05:08;57238.09;;;-144.48;26.15
10688;BME280;5392;42.688;23.298;2022-08-04T12:08:35;57219.31;;;-144.48;25.78
10688;BME280;5392;42.688;23.298;2022-08-04T12:11:31;57236.00;;;-144.48;26.23
10688;BME280;5392;42.688;23.298;2022-08-04T12:14:24;57225.56;;;-144.48;26.40
10688;BME280;5392;42.688;23.298;2022-08-04T12:17:00;57200.53;;;-144.48;27.01
10688;BME280;5392;42.688;23.298;2022-08-04T12:19:38;57258.97;;;-144.48;27.24
10688;BME280;5392;42.688;23.298;2022-08-04T12:22:28;57231.84;;;-144.48;27.24
10688;BME280;5392;42.688;23.298;2022-08-04T12:25:02;57217.22;;;-144.48;27.70
10688;BME280;5392;42.688;23.298;2022-08-04T12:30:11;57269.41;;;-144.48;28.07
10688;BME280;5392;42.688;23.298;2022-08-04T12:33:19;57238.09;;;-144.48;27.76
10688;BME280;5392;42.688;23.298;2022-08-04T12:35:54;57242.28;;;-144.48;29.12
10688;BME280;5392;42.688;23.298;2022-08-04T12:38:43;57246.44;;;-144.48;28.74
10688;BME280;5392;42.688;23.298;2022-08-04T12:41:24;57233.91;;;-144.48;28.91
10688;BME280;5392;42.688;23.298;2022-08-04T12:43:53;57267.31;;;-144.48;28.01
10688;BME280;5392;42.688;23.298;2022-08-04T12:46:23;57240.19;;;-144.48;28.28
10688;BME280;5392;42.688;23.298;2022-08-04T12:48:51;57238.09;;;-144.48;28.13
10688;BME280;5392;42.688;23.298;2022-08-04T12:51:25;57252.72;;;-144.48;27.41
10688;BME280;5392;42.688;23.298;2022-08-04T12:54:22;57273.56;;;-144.48;28.22
10688;BME280;5392;42.688;23.298;2022-08-04T12:56:57;57175.47;;;-144.48;27.39
10688;BME280;5392;42.688;23.298;2022-08-04T12:59:25;57250.63;;;-144.48;28.30
10688;BME280;5392;42.688;23.298;2022-08-04T13:01:52;57213.06;;;-144.48;27.61
10688;BME280;5392;42.688;23.298;2022-08-04T13:04:37;57213.06;;;-144.48;27.41
10688;BME280;5392;42.688;23.298;2022-08-04T13:07:19;57217.22;;;-144.48;27.25
10688;BME280;5392;42.688;23.298;2022-08-04T13:09:47;57221.41;;;-144.48;27.51
10688;BME280;5392;42.688;23.298;2022-08-04T13:12:17;57215.13;;;-144.48;27.31
10688;BME280;5392;42.688;23.298;2022-08-04T13:14:48;57221.41;;;-144.48;26.38
10688;BME280;5392;42.688;23.298;2022-08-04T13:17:16;57240.19;;;-144.48;25.95
10688;BME280;5392;42.688;23.298;2022-08-04T13:19:47;57208.88;;;-144.48;25.89
10688;BME280;5392;42.688;23.298;2022-08-04T13:22:26;57213.06;;;-144.48;25.88
10688;BME280;5392;42.688;23.298;2022-08-04T13:24:57;57206.78;;;-144.48;26.02
10688;BME280;5392;42.688;23.298;2022-08-04T13:27:44;57202.63;;;-144.48;26.42
10688;BME280;5392;42.688;23.298;2022-08-04T13:30:17;57192.19;;;-144.48;26.81
10688;BME280;5392;42.688;23.298;2022-08-04T13:32:52;57223.50;;;-144.48;26.88
10688;BME280;5392;42.688;23.298;2022-08-04T13:35:22;57208.88;;;-144.48;26.54
10688;BME280;5392;42.688;23.298;2022-08-04T13:38:11;57219.31;;;-144.48;26.30
10688;BME280;5392;42.688;23.298;2022-08-04T13:40:40;57229.75;;;-144.48;26.54
10688;BME280;5392;42.688;23.298;2022-08-04T13:43:09;57217.22;;;-144.48;26.43
10688;BME280;5392;42.688;23.298;2022-08-04T13:46:03;57231.84;;;-144.48;26.34
10688;BME280;5392;42.688;23.298;2022-08-04T13:48:37;57231.84;;;-144.48;26.12
10688;BME280;5392;42.688;23.298;2022-08-04T13:51:05;57196.34;;;-144.48;26.56
10688;BME280;5392;42.688;23.298;2022-08-04T13:53:33;57240.19;;;-144.48;26.13
10688;BME280;5392;42.688;23.298;2022-08-04T13:56:04;57198.44;;;-144.48;26.44
10688;BME280;5392;42.688;23.298;2022-08-04T13:58:33;57177.56;;;-144.48;26.58
10688;BME280;5392;42.688;23.298;2022-08-04T14:01:15;57215.13;;;-144.48;26.93
10688;BME280;5392;42.688;23.298;2022-08-04T14:03:56;57233.91;;;-144.48;27.00
10688;BME280;5392;42.688;23.298;2022-08-04T14:06:33;57233.91;;;-144.48;27.25
10688;BME280;5392;42.688;23.298;2022-08-04T14:09:22;57225.56;;;-144.48;26.85
10688;BME280;5392;42.688;23.298;2022-08-04T14:12:10;57183.84;;;-144.48;26.42
10688;BME280;5392;42.688;23.298;2022-08-04T14:14:57;57179.66;;;-144.48;26.17
10688;BME280;5392;42.688;23.298;2022-08-04T14:17:25;57204.69;;;-144.48;26.82
10688;BME280;5392;42.688;23.298;2022-08-04T14:19:56;57238.09;;;-144.48;26.44
10688;BME280;5392;42.688;23.298;2022-08-04T14:24:59;57202.63;;;-144.48;26.24
10688;BME280;5392;42.688;23.298;2022-08-04T14:27:50;57225.56;;;-144.48;26.85
10688;BME280;5392;42.688;23.298;2022-08-04T14:33:00;57208.88;;;-144.48;27.66
10688;BME280;5392;42.688;23.298;2022-08-04T14:35:58;57227.66;;;-144.48;27.91
10688;BME280;5392;42.688;23.298;2022-08-04T14:38:55;57183.84;;;-144.48;28.03
10688;BME280;5392;42.688;23.298;2022-08-04T14:41:42;57223.50;;;-144.48;27.22
10688;BME280;5392;42.688;23.298;2022-08-04T14:44:09;57242.28;;;-144.48;27.49
10688;BME280;5392;42.688;23.298;2022-08-04T14:46:51;57183.84;;;-144.48;27.75
10688;BME280;5392;42.688;23.298;2022-08-04T14:49:19;57244.34;;;-144.48;28.10
10688;BME280;5392;42.688;23.298;2022-08-04T14:54:28;57210.97;;;-144.48;28.21
10688;BME280;5392;42.688;23.298;2022-08-04T14:56:57;57198.44;;;-144.48;27.35
10688;BME280;5392;42.688;23.298;2022-08-04T14:59:26;57194.25;;;-144.48;27.79
10688;BME280;5392;42.688;23.298;2022-08-04T15:02:10;57208.88;;;-144.48;27.75
10688;BME280;5392;42.688;23.298;2022-08-04T15:04:38;57210.97;;;-144.48;28.00
10688;BME280;5392;42.688;23.298;2022-08-04T15:07:07;57236.00;;;-144.48;28.35
10688;BME280;5392;42.688;23.298;2022-08-04T15:09:34;57227.66;;;-144.48;27.73
10688;BME280;5392;42.688;23.298;2022-08-04T15:12:02;57215.13;;;-144.48;28.10
10688;BME280;5392;42.688;23.298;2022-08-04T15:14:30;57204.69;;;-144.48;28.14
10688;BME280;5392;42.688;23.298;2022-08-04T15:17:05;57217.22;;;-144.48;28.71
10688;BME280;5392;42.688;23.298;2022-08-04T15:19:53;57165.03;;;-144.48;28.10
10688;BME280;5392;42.688;23.298;2022-08-04T15:22:21;57244.34;;;-144.48;28.28
10688;BME280;5392;42.688;23.298;2022-08-04T15:24:48;57196.34;;;-144.48;27.93
10688;BME280;5392;42.688;23.298;2022-08-04T15:27:24;57215.13;;;-144.48;27.97
10688;BME280;5392;42.688;23.298;2022-08-04T15:29:56;57225.56;;;-144.48;27.85
10688;BME280;5392;42.688;23.298;2022-08-04T15:32:32;57215.13;;;-144.48;27.54
10688;BME280;5392;42.688;23.298;2022-08-04T15:35:26;57200.53;;;-144.48;27.78
10688;BME280;5392;42.688;23.298;2022-08-04T15:38:13;57194.25;;;-144.48;28.30
10688;BME280;5392;42.688;23.298;2022-08-04T15:40:50;57188.00;;;-144.48;28.12
10688;BME280;5392;42.688;23.298;2022-08-04T15:46:07;57215.13;;;-144.48;28.39
10688;BME280;5392;42.688;23.298;2022-08-04T15:48:54;57198.44;;;-144.48;28.31
10688;BME280;5392;42.688;23.298;2022-08-04T15:51:25;57188.00;;;-144.48;28.37
10688;BME280;5392;42.688;23.298;2022-08-04T15:58:55;57215.13;;;-144.48;28.58
10688;BME280;5392;42.688;23.298;2022-08-04T16:01:23;57238.09;;;-144.48;28.43
10688;BME280;5392;42.688;23.298;2022-08-04T16:03:52;57217.22;;;-144.48;28.65
10688;BME280;5392;42.688;23.298;2022-08-04T16:09:00;57213.06;;;-144.48;28.77
10688;BME280;5392;42.688;23.298;2022-08-04T16:16:28;57208.88;;;-144.48;28.62
10688;BME280;5392;42.688;23.298;2022-08-04T16:19:04;57238.09;;;-144.48;29.40
10688;BME280;5392;42.688;23.298;2022-08-04T16:21:33;57192.19;;;-144.48;28.74
10688;BME280;5392;42.688;23.298;2022-08-04T16:26:45;57156.69;;;-144.48;28.18
10688;BME280;5392;42.688;23.298;2022-08-04T16:34:32;57219.31;;;-144.48;27.78
10688;BME280;5392;42.688;23.298;2022-08-04T16:37:21;57154.59;;;-144.48;27.96
10688;BME280;5392;42.688;23.298;2022-08-04T16:39:48;57175.47;;;-144.48;28.22
10688;BME280;5392;42.688;23.298;2022-08-04T16:50:22;57200.53;;;-144.48;28.37
10688;BME280;5392;42.688;23.298;2022-08-04T16:52:52;57194.25;;;-144.48;28.26
10688;BME280;5392;42.688;23.298;2022-08-04T16:55:22;57169.22;;;-144.48;28.60
10688;BME280;5392;42.688;23.298;2022-08-04T16:57:56;57223.50;;;-144.48;28.56
10688;BME280;5392;42.688;23.298;2022-08-04T17:00:33;57204.69;;;-144.48;28.89
10688;BME280;5392;42.688;23.298;2022-08-04T17:03:02;57204.69;;;-144.48;28.76
10688;BME280;5392;42.688;23.298;2022-08-04T17:05:30;57229.75;;;-144.48;29.25
10688;BME280;5392;42.688;23.298;2022-08-04T17:08:04;57229.75;;;-144.48;29.41
10688;BME280;5392;42.688;23.298;2022-08-04T17:10:51;57238.09;;;-144.48;29.15
10688;BME280;5392;42.688;23.298;2022-08-04T17:13:27;57238.09;;;-144.48;29.47
10688;BME280;5392;42.688;23.298;2022-08-04T17:16:16;57188.00;;;-144.48;29.92
10688;BME280;5392;42.688;23.298;2022-08-04T17:18:47;57221.41;;;-144.48;29.97
10688;BME280;5392;42.688;23.298;2022-08-04T17:23:46;57229.75;;;-144.48;30.15
10688;BME280;5392;42.688;23.298;2022-08-04T17:26:36;57215.13;;;-144.48;30.38
10688;BME280;5392;42.688;23.298;2022-08-04T17:29:07;57221.41;;;-144.48;30.53
10688;BME280;5392;42.688;23.298;2022-08-04T17:31:36;57179.66;;;-144.48;30.60
10688;BME280;5392;42.688;23.298;2022-08-04T17:34:11;57208.88;;;-144.48;30.74
10688;BME280;5392;42.688;23.298;2022-08-04T17:36:45;57233.91;;;-144.48;30.97